Terminal Aerodrome Forecast
Issued by NWS Pendleton, OR

Home | Current Version | Previous Version | Text Only | Print | Product List | Glossary On
Versions: 1 2 3 4 5 6 7 8 9 10 11 12
000
FTUS46 KPDT 030540
TAFPDT
TAF
KPDT 030540Z 0306/0406 15007KT P6SM SKC
     FM031700 30008KT P6SM SKC
     FM032000 30012KT P6SM SKC
     FM040400 30008KT P6SM SKC=

USA.gov is the U.S. government's official web portal to all federal, state and local government web resources and services.